createdAt,value
2023-04-01T00:01:16.139Z,11.04
2023-04-01T00:03:47.081Z,10.89
2023-04-01T00:06:17.606Z,11.04
2023-04-01T00:08:46.079Z,11.04
2023-04-01T00:11:14.240Z,11.03
2023-04-01T00:13:42.470Z,10.88
2023-04-01T00:16:20.888Z,10.81
2023-04-01T00:18:51.211Z,10.67
2023-04-01T00:21:22.000Z,10.60
2023-04-01T00:23:52.124Z,10.50
2023-04-01T00:26:22.528Z,10.38
2023-04-01T00:28:51.347Z,10.25
2023-04-01T00:31:19.516Z,10.29
2023-04-01T00:33:47.354Z,10.16
2023-04-01T00:36:18.432Z,10.19
2023-04-01T00:38:50.022Z,10.29
2023-04-01T00:41:19.594Z,10.21
2023-04-01T00:43:50.707Z,10.19
2023-04-01T00:46:18.966Z,10.24
2023-04-01T00:48:54.871Z,10.29
2023-04-01T00:51:31.247Z,10.18
2023-04-01T00:54:02.880Z,10.34
2023-04-01T00:56:40.810Z,10.32
2023-04-01T00:59:14.608Z,10.35
2023-04-01T01:01:43.031Z,10.34
2023-04-01T01:04:26.654Z,10.18
2023-04-01T01:07:04.057Z,10.28
2023-04-01T01:09:49.296Z,10.43
2023-04-01T01:12:17.105Z,10.45
2023-04-01T01:15:05.161Z,10.44
2023-04-01T01:17:55.637Z,10.36
2023-04-01T01:20:48.956Z,10.34
2023-04-01T01:23:37.707Z,10.41
2023-04-01T01:26:40.918Z,10.36
2023-04-01T01:29:44.964Z,10.16
2023-04-01T01:32:31.207Z,10.30
2023-04-01T01:35:27.581Z,10.10
2023-04-01T01:38:01.060Z,9.88
2023-04-01T01:40:30.909Z,9.97
2023-04-01T01:43:04.921Z,9.77
2023-04-01T01:45:36.953Z,9.90
2023-04-01T01:48:06.767Z,9.91
2023-04-01T01:50:35.437Z,9.82
2023-04-01T01:53:09.225Z,9.78
2023-04-01T01:55:40.766Z,9.86
2023-04-01T01:58:15.093Z,9.89
2023-04-01T02:00:48.596Z,9.94
2023-04-01T02:03:18.302Z,9.92
2023-04-01T02:05:47.189Z,9.89
2023-04-01T02:08:22.547Z,9.92
2023-04-01T02:10:54.130Z,9.86
2023-04-01T02:13:35.733Z,9.72
2023-04-01T02:16:10.156Z,9.67
2023-04-01T02:18:39.907Z,9.74
2023-04-01T02:21:09.924Z,9.78
2023-04-01T02:23:39.603Z,9.77
2023-04-01T02:26:09.857Z,9.63
2023-04-01T02:28:39.636Z,9.77
2023-04-01T02:31:12.293Z,9.77
2023-04-01T02:33:41.070Z,9.97
2023-04-01T02:36:14.302Z,9.82
2023-04-01T02:38:44.159Z,9.79
2023-04-01T02:41:12.821Z,9.86
2023-04-01T02:43:40.717Z,9.92
2023-04-01T02:46:08.578Z,9.94
2023-04-01T02:48:36.418Z,9.93
2023-04-01T02:51:05.101Z,9.93
2023-04-01T02:53:33.022Z,9.89
2023-04-01T02:56:00.772Z,9.64
2023-04-01T02:58:28.580Z,9.56
2023-04-01T03:00:56.436Z,9.40
2023-04-01T03:03:24.358Z,9.28
2023-04-01T03:05:52.385Z,9.26
2023-04-01T03:08:20.783Z,9.14
2023-04-01T03:10:48.557Z,8.94
2023-04-01T03:13:16.924Z,8.99
2023-04-01T03:15:45.022Z,9.04
2023-04-01T03:18:12.908Z,9.07
2023-04-01T03:20:41.556Z,9.05
2023-04-01T03:23:10.068Z,9.02
2023-04-01T03:25:38.359Z,9.11
2023-04-01T03:28:06.334Z,9.17
2023-04-01T03:30:34.881Z,9.16
2023-04-01T03:33:03.353Z,9.17
2023-04-01T03:35:33.573Z,9.08
2023-04-01T03:38:01.580Z,8.84
2023-04-01T03:40:29.378Z,8.74
2023-04-01T03:42:57.409Z,8.65
2023-04-01T03:45:25.477Z,8.47
2023-04-01T03:47:53.516Z,8.48
2023-04-01T03:50:22.134Z,8.48
2023-04-01T03:52:50.302Z,8.40
2023-04-01T03:55:19.140Z,8.43
2023-04-01T03:57:49.196Z,8.42
2023-04-01T04:00:20.056Z,8.33
2023-04-01T04:02:52.788Z,8.18
2023-04-01T04:05:27.769Z,8.11
2023-04-01T04:07:55.783Z,8.21
2023-04-01T04:10:24.410Z,8.29
2023-04-01T04:12:53.222Z,8.33
2023-04-01T04:15:23.832Z,8.36
2023-04-01T04:17:51.881Z,8.18
2023-04-01T04:20:19.742Z,8.01
2023-04-01T04:22:48.178Z,8.03
2023-04-01T04:25:16.193Z,8.00
2023-04-01T04:27:44.036Z,7.93
2023-04-01T04:30:14.448Z,7.90
2023-04-01T04:32:43.249Z,7.87
2023-04-01T04:35:12.835Z,7.77
2023-04-01T04:37:41.404Z,7.73
2023-04-01T04:40:09.659Z,7.82
2023-04-01T04:42:37.723Z,7.75
2023-04-01T04:45:10.886Z,7.80
2023-04-01T04:47:42.224Z,7.82
2023-04-01T04:50:10.946Z,7.85
2023-04-01T04:52:40.807Z,7.68
2023-04-01T04:55:08.922Z,7.81
2023-04-01T04:57:37.261Z,8.00
2023-04-01T05:00:05.909Z,8.12
2023-04-01T05:03:02.908Z,7.98
2023-04-01T05:05:31.198Z,7.93
2023-04-01T05:07:59.501Z,7.84
2023-04-01T05:10:27.512Z,7.92
2023-04-01T05:12:55.412Z,7.97
2023-04-01T05:15:24.819Z,7.96
2023-04-01T05:17:53.006Z,7.99
2023-04-01T05:20:20.886Z,7.84
2023-04-01T05:22:48.960Z,7.97
2023-04-01T05:25:17.126Z,8.06
2023-04-01T05:27:44.980Z,8.12
2023-04-01T05:30:13.088Z,8.26
2023-04-01T05:32:59.185Z,8.23
2023-04-01T05:35:27.116Z,8.34
2023-04-01T05:37:54.942Z,8.24
2023-04-01T05:40:23.242Z,8.05
2023-04-01T05:42:50.996Z,8.06
2023-04-01T05:45:19.187Z,8.18
2023-04-01T05:48:07.211Z,8.50
2023-04-01T05:50:42.797Z,8.53
2023-04-01T05:53:12.197Z,8.61
2023-04-01T05:55:43.590Z,8.78
2023-04-01T05:58:11.900Z,8.96
2023-04-01T06:00:41.583Z,9.05
2023-04-01T06:03:09.625Z,9.25
2023-04-01T06:05:42.811Z,9.49
2023-04-01T06:08:19.060Z,9.75
2023-04-01T06:11:00.720Z,9.65
2023-04-01T06:13:34.552Z,9.73
2023-04-01T06:16:19.867Z,9.88
2023-04-01T06:19:15.888Z,9.81
2023-04-01T06:22:07.286Z,9.73
2023-04-01T06:24:42.136Z,9.74
2023-04-01T06:27:41.220Z,9.77
2023-04-01T06:30:39.612Z,10.13
2023-04-01T06:33:32.786Z,10.26
2023-04-01T06:36:07.105Z,10.33
2023-04-01T06:38:44.175Z,10.40
2023-04-01T06:41:36.532Z,10.74
2023-04-01T06:44:26.292Z,11.39
2023-04-01T06:47:38.958Z,11.73
2023-04-01T06:51:13.370Z,12.07
2023-04-01T06:54:22.772Z,12.31
2023-04-01T06:57:43.723Z,12.48
2023-04-01T07:00:28.318Z,12.33
2023-04-01T07:03:19.553Z,12.50
2023-04-01T07:05:51.121Z,12.86
2023-04-01T07:08:33.937Z,12.86
2023-04-01T07:11:38.494Z,13.06
2023-04-01T07:14:36.600Z,13.13
2023-04-01T07:17:34.009Z,13.26
2023-04-01T07:20:23.874Z,13.29
2023-04-01T07:26:45.601Z,13.39
2023-04-01T07:36:48.746Z,13.82
2023-04-01T07:40:03.273Z,14.12
2023-04-01T07:43:07.533Z,13.95
2023-04-01T07:46:01.059Z,14.24
2023-04-01T08:08:16.033Z,14.58
2023-04-01T08:39:36.871Z,15.18
2023-04-01T08:42:36.413Z,15.21
2023-04-01T08:45:23.082Z,15.47
2023-04-01T08:47:56.766Z,15.66
2023-04-01T08:51:01.177Z,15.77
2023-04-01T08:53:45.505Z,16.04
2023-04-01T08:56:24.750Z,15.92
2023-04-01T08:59:10.400Z,16.14
2023-04-01T09:01:55.385Z,15.91
2023-04-01T09:05:15.859Z,15.85
2023-04-01T09:08:13.616Z,16.01
2023-04-01T09:10:59.640Z,16.00
2023-04-01T09:14:01.114Z,16.07
2023-04-01T09:17:08.313Z,16.22
2023-04-01T09:20:11.502Z,16.47
2023-04-01T09:22:48.580Z,16.68
2023-04-01T09:25:42.901Z,16.69
2023-04-01T09:28:19.821Z,16.49
2023-04-01T09:30:51.252Z,16.77
2023-04-01T09:33:44.898Z,16.48
2023-04-01T09:36:16.733Z,16.86
2023-04-01T09:38:58.860Z,17.01
2023-04-01T09:41:48.107Z,17.00
2023-04-01T09:44:28.593Z,17.13
2023-04-01T09:47:44.395Z,17.39
2023-04-01T09:50:24.514Z,17.30
2023-04-01T09:53:03.813Z,17.37
2023-04-01T09:56:10.139Z,17.50
2023-04-01T09:59:24.697Z,17.65
2023-04-01T10:02:54.261Z,17.78
2023-04-01T10:05:54.028Z,17.79
2023-04-01T10:08:32.528Z,17.92
2023-04-01T10:11:24.466Z,17.92
2023-04-01T10:14:05.054Z,18.19
2023-04-01T10:16:55.724Z,18.28
2023-04-01T10:20:11.886Z,18.24
2023-04-01T10:23:09.757Z,18.27
2023-04-01T10:25:58.772Z,18.17
2023-04-01T10:28:48.955Z,18.34
2023-04-01T10:31:59.249Z,18.44
2023-04-01T10:34:45.394Z,18.46
2023-04-01T10:37:41.589Z,18.77
2023-04-01T10:40:40.351Z,19.14
2023-04-01T10:43:38.403Z,19.02
2023-04-01T10:46:36.371Z,18.84
2023-04-01T10:49:35.536Z,18.80
2023-04-01T10:52:39.698Z,19.01
2023-04-01T10:55:38.692Z,19.14
2023-04-01T10:58:58.237Z,19.41
2023-04-01T11:02:10.039Z,19.45
2023-04-01T11:05:24.593Z,19.50
2023-04-01T11:08:24.251Z,19.48
2023-04-01T11:11:30.015Z,19.66
2023-04-01T11:14:32.383Z,19.65
2023-04-01T11:17:28.572Z,19.69
2023-04-01T11:20:38.488Z,19.88
2023-04-01T11:23:26.760Z,19.69
2023-04-01T11:26:13.945Z,19.70
2023-04-01T11:29:56.719Z,20.11
2023-04-01T11:32:52.472Z,19.78
2023-04-01T11:35:50.094Z,20.26
2023-04-01T11:38:58.539Z,20.41
2023-04-01T11:42:11.955Z,20.63
2023-04-01T11:45:25.027Z,20.93
2023-04-01T11:48:18.413Z,21.09
2023-04-01T11:50:55.584Z,21.39
2023-04-01T11:53:30.873Z,21.16
2023-04-01T11:56:29.778Z,20.92
2023-04-01T11:59:09.678Z,21.21
2023-04-01T12:02:09.450Z,21.22
2023-04-01T12:05:07.410Z,21.26
2023-04-01T12:07:54.019Z,21.75
2023-04-01T12:10:46.065Z,21.01
2023-04-01T12:13:20.490Z,20.96
2023-04-01T12:15:57.361Z,21.50
2023-04-01T12:19:01.406Z,21.67
2023-04-01T12:21:44.741Z,21.70
2023-04-01T12:24:32.227Z,21.92
2023-04-01T12:27:09.356Z,22.13
2023-04-01T12:30:07.842Z,22.26
2023-04-01T12:33:06.611Z,22.28
2023-04-01T12:36:09.675Z,22.66
2023-04-01T12:38:53.477Z,22.70
2023-04-01T12:41:27.337Z,22.61
2023-04-01T12:44:04.406Z,22.26
2023-04-01T12:46:58.772Z,22.62
2023-04-01T12:49:32.794Z,22.76
2023-04-01T12:52:09.780Z,22.89
2023-04-01T12:54:50.856Z,22.76
2023-04-01T12:57:24.840Z,22.71
2023-04-01T13:00:11.532Z,22.95
2023-04-01T13:02:52.475Z,22.86
2023-04-01T13:05:37.793Z,22.91
2023-04-01T13:08:13.288Z,22.80
2023-04-01T13:10:44.672Z,22.78
2023-04-01T13:13:49.238Z,23.06
2023-04-01T13:16:31.234Z,23.38
2023-04-01T13:19:32.214Z,23.28
2023-04-01T13:22:25.858Z,23.71
2023-04-01T13:25:05.736Z,23.80
2023-04-01T13:27:47.537Z,23.56
2023-04-01T13:30:34.446Z,23.56
2023-04-01T13:33:51.553Z,23.97
2023-04-01T13:36:26.828Z,24.02
2023-04-01T13:39:04.096Z,23.89
2023-04-01T13:41:35.246Z,23.87
2023-04-01T13:44:17.719Z,23.52
2023-04-01T13:47:25.040Z,23.29
2023-04-01T13:50:23.849Z,23.59
2023-04-01T13:53:10.422Z,23.82
2023-04-01T13:55:59.441Z,23.71
2023-04-01T13:58:52.129Z,23.73
2023-04-01T14:01:32.346Z,23.99
2023-04-01T14:04:19.095Z,24.10
2023-04-01T14:07:19.561Z,24.02
2023-04-01T14:10:08.858Z,24.06
2023-04-01T14:12:49.132Z,23.89
2023-04-01T14:15:23.402Z,23.80
2023-04-01T14:18:28.979Z,23.23
2023-04-01T14:21:06.106Z,22.99
2023-04-01T14:24:06.008Z,23.17
2023-04-01T14:27:03.773Z,22.57
2023-04-01T14:29:41.494Z,23.16
2023-04-01T14:32:52.853Z,23.43
2023-04-01T14:35:42.764Z,23.58
2023-04-01T14:38:29.961Z,23.47
2023-04-01T14:41:12.973Z,23.43
2023-04-01T14:43:56.140Z,23.68
2023-04-01T14:47:04.789Z,23.35
2023-04-01T14:49:43.261Z,23.25
2023-04-01T14:52:39.510Z,23.05
2023-04-01T14:55:32.904Z,22.77
2023-04-01T14:58:16.376Z,22.50
2023-04-01T15:01:06.218Z,22.38
2023-04-01T15:03:41.899Z,22.40
2023-04-01T15:06:28.486Z,22.30
2023-04-01T15:09:05.336Z,21.94
2023-04-01T15:21:14.907Z,21.77
2023-04-01T15:24:07.950Z,21.60
2023-04-01T15:26:54.483Z,21.45
2023-04-01T15:29:59.155Z,21.53
2023-04-01T15:33:04.110Z,21.62
2023-04-01T15:36:01.633Z,21.54
2023-04-01T15:38:51.521Z,21.65
2023-04-01T15:41:45.602Z,21.48
2023-04-01T15:44:32.306Z,21.47
2023-04-01T15:47:02.619Z,21.30
2023-04-01T15:49:46.318Z,21.33
2023-04-01T15:52:44.107Z,21.19
2023-04-01T15:55:32.927Z,21.23
2023-04-01T15:58:38.572Z,21.22
2023-04-01T16:01:35.605Z,21.08
2023-04-01T16:04:34.596Z,21.11
2023-04-01T16:07:47.114Z,21.01
2023-04-01T16:10:23.937Z,21.02
2023-04-01T16:13:30.626Z,21.07
2023-04-01T16:16:16.255Z,21.09
2023-04-01T16:18:53.370Z,21.09
2023-04-01T16:22:16.204Z,21.03
2023-04-01T16:25:16.933Z,20.94
2023-04-01T16:28:06.609Z,20.76
2023-04-01T16:30:44.261Z,20.62
2023-04-01T16:33:50.421Z,20.56
2023-04-01T16:36:36.795Z,20.44
2023-04-01T16:39:42.214Z,20.48
2023-04-01T16:42:41.579Z,20.51
2023-04-01T16:45:09.612Z,20.39
2023-04-01T16:47:42.488Z,20.24
2023-04-01T16:50:26.445Z,20.31
2023-04-01T16:53:20.504Z,20.28
2023-04-01T16:55:54.293Z,20.26
2023-04-01T16:58:28.712Z,20.25
2023-04-01T17:01:05.458Z,20.06
2023-04-01T17:03:40.087Z,19.93
2023-04-01T17:06:40.874Z,19.89
2023-04-01T17:09:11.765Z,19.74
2023-04-01T17:12:08.395Z,19.65
2023-04-01T17:15:02.160Z,19.57
2023-04-01T17:17:37.420Z,19.62
2023-04-01T17:20:36.381Z,19.68
2023-04-01T17:23:10.563Z,19.73
2023-04-01T17:25:57.128Z,19.69
2023-04-01T17:28:37.689Z,19.53
2023-04-01T17:31:31.994Z,19.40
2023-04-01T17:34:26.222Z,19.38
2023-04-01T17:37:30.465Z,19.27
2023-04-01T17:40:28.895Z,19.22
2023-04-01T17:43:32.602Z,19.24
2023-04-01T17:46:12.746Z,19.09
2023-04-01T17:48:50.696Z,19.05
2023-04-01T17:52:03.212Z,19.00
2023-04-01T17:55:09.287Z,18.96
2023-04-01T17:58:00.260Z,18.95
2023-04-01T18:04:02.574Z,18.66
2023-04-01T18:07:01.603Z,18.75
2023-04-01T18:09:42.108Z,18.69
2023-04-01T18:12:29.399Z,18.56
2023-04-01T18:15:37.963Z,18.48
2023-04-01T18:18:21.199Z,18.38
2023-04-01T18:21:04.680Z,18.34
2023-04-01T18:24:14.121Z,18.31
2023-04-01T18:26:48.126Z,18.08
2023-04-01T18:29:23.630Z,18.23
2023-04-01T18:32:03.005Z,18.27
2023-04-01T18:34:55.625Z,18.17
2023-04-01T18:37:40.624Z,18.13
2023-04-01T18:40:25.436Z,17.98
2023-04-01T18:43:12.121Z,17.99
2023-04-01T18:46:01.744Z,17.94
2023-04-01T18:48:48.497Z,17.86
2023-04-01T18:51:22.940Z,17.88
2023-04-01T18:54:17.890Z,17.85
2023-04-01T18:56:47.274Z,17.88
2023-04-01T18:59:28.784Z,17.86
2023-04-01T19:02:17.689Z,17.79
2023-04-01T19:05:15.647Z,17.72
2023-04-01T19:07:49.933Z,17.69
2023-04-01T19:10:47.763Z,17.68
2023-04-01T19:13:35.349Z,17.67
2023-04-01T19:16:07.743Z,17.66
2023-04-01T19:18:57.149Z,17.57
2023-04-01T19:21:50.974Z,17.56
2023-04-01T19:25:15.686Z,17.46
2023-04-01T19:27:50.917Z,17.41
2023-04-01T19:30:18.884Z,17.35
2023-04-01T19:33:03.756Z,17.40
2023-04-01T19:35:48.882Z,17.40
2023-04-01T19:38:42.091Z,17.28
2023-04-01T19:41:23.325Z,17.32
2023-04-01T19:44:10.920Z,17.37
2023-04-01T19:47:07.995Z,17.38
2023-04-01T19:50:05.151Z,17.41
2023-04-01T19:52:44.614Z,17.27
2023-04-01T19:55:35.475Z,16.91
2023-04-01T19:58:22.038Z,16.82
2023-04-01T20:00:55.624Z,16.75
2023-04-01T20:04:02.892Z,16.73
2023-04-01T20:06:47.584Z,16.72
2023-04-01T20:09:36.559Z,16.83
2023-04-01T20:12:26.623Z,16.75
2023-04-01T20:15:05.506Z,16.69
2023-04-01T20:17:44.892Z,16.46
2023-04-01T20:20:13.328Z,16.25
2023-04-01T20:22:47.741Z,16.33
2023-04-01T20:25:27.818Z,16.36
2023-04-01T20:27:58.008Z,16.28
2023-04-01T20:30:32.533Z,16.29
2023-04-01T20:33:26.472Z,16.22
2023-04-01T20:36:14.675Z,15.59
2023-04-01T20:39:26.092Z,15.22
2023-04-01T20:41:56.351Z,15.08
2023-04-01T20:45:18.344Z,15.07
2023-04-01T20:48:26.940Z,15.00
2023-04-01T20:51:08.497Z,14.94
2023-04-01T20:54:07.896Z,14.90
2023-04-01T20:56:43.888Z,14.97
2023-04-01T20:59:27.086Z,15.03
2023-04-01T21:02:21.584Z,14.92
2023-04-01T21:05:04.567Z,15.05
2023-04-01T21:07:50.953Z,15.09
2023-04-01T21:10:26.199Z,15.16
2023-04-01T21:13:14.440Z,15.29
2023-04-01T21:16:06.750Z,15.38
2023-04-01T21:18:51.885Z,15.38
2023-04-01T21:21:28.394Z,15.37
2023-04-01T21:24:26.564Z,15.51
2023-04-01T21:27:13.585Z,15.50
2023-04-01T21:30:17.751Z,15.52
2023-04-01T21:33:07.581Z,15.61
2023-04-01T21:35:51.060Z,15.72
2023-04-01T21:38:59.517Z,15.86
2023-04-01T21:42:01.131Z,15.82
2023-04-01T21:45:06.368Z,15.78
2023-04-01T21:48:00.649Z,15.76
2023-04-01T21:50:46.595Z,15.58
2023-04-01T21:53:52.731Z,15.65
2023-04-01T21:56:49.886Z,15.77
2023-04-01T21:59:55.070Z,15.87
2023-04-01T22:02:22.793Z,15.75
2023-04-01T22:05:18.162Z,15.82
2023-04-01T22:07:55.200Z,15.68
2023-04-01T22:11:10.102Z,15.67
2023-04-01T22:13:44.341Z,15.84
2023-04-01T22:16:16.512Z,15.73
2023-04-01T22:18:56.348Z,15.75
2023-04-01T22:22:02.976Z,15.70
2023-04-01T22:24:33.626Z,15.71
2023-04-01T22:27:28.333Z,15.73
2023-04-01T22:30:02.299Z,15.76
2023-04-01T22:32:38.366Z,15.78
2023-04-01T22:35:30.034Z,15.79
2023-04-01T22:38:24.250Z,15.84
2023-04-01T22:41:13.560Z,15.77
2023-04-01T22:43:44.897Z,15.76
2023-04-01T22:46:38.401Z,15.71
2023-04-01T22:49:10.693Z,15.78
2023-04-01T22:51:47.289Z,15.93
2023-04-01T22:54:27.461Z,15.87
2023-04-01T22:57:04.200Z,15.91
2023-04-01T22:59:38.916Z,15.84
2023-04-01T23:02:19.762Z,15.81
2023-04-01T23:04:57.031Z,15.77
2023-04-01T23:07:50.258Z,15.76
2023-04-01T23:10:39.904Z,15.85
2023-04-01T23:13:18.165Z,15.92
2023-04-01T23:15:46.937Z,15.35
2023-04-01T23:18:46.849Z,14.83
2023-04-01T23:21:23.608Z,14.64
2023-04-01T23:24:28.596Z,14.57
2023-04-01T23:27:14.647Z,14.72
2023-04-01T23:29:43.995Z,14.53
2023-04-01T23:32:18.312Z,14.57
2023-04-01T23:35:01.515Z,14.71
2023-04-01T23:37:29.625Z,14.57
2023-04-01T23:39:59.602Z,14.30
2023-04-01T23:42:40.235Z,14.34
2023-04-01T23:45:21.926Z,14.51
2023-04-01T23:47:51.660Z,14.57
2023-04-01T23:50:21.556Z,14.60
2023-04-01T23:52:53.544Z,14.64
2023-04-01T23:55:29.002Z,14.73
2023-04-01T23:58:17.871Z,14.77
